Time;durP1;ratioP1;P1;durP2;ratioP2;P2;SDS_P1;SDS_P2;PMS_P1;PMS_P2;Temp;Humidity;BMP_temperature;BMP_pressure;BME280_temperature;BME280_humidity;BME280_pressure;Samples;Min_cycle;Max_cycle;Signal;HPM_P1;HPM_P2
2024/02/23 00:00:05;;;;;;;2.47;0.98;;;5.70;99.90;;;;;;5055601;28;20087;-70
2024/02/23 00:02:32;;;;;;;5.10;0.75;;;5.70;99.90;;;;;;5055439;28;20033;-70
2024/02/23 00:04:57;;;;;;;2.63;0.70;;;5.90;99.90;;;;;;5055484;28;20033;-69
2024/02/23 00:07:23;;;;;;;4.20;0.60;;;5.90;99.90;;;;;;5055650;28;20041;-70
2024/02/23 00:09:49;;;;;;;4.43;0.57;;;5.80;99.90;;;;;;5054841;28;20493;-70
2024/02/23 00:12:14;;;;;;;3.85;0.65;;;5.70;99.90;;;;;;5054869;28;20037;-70
2024/02/23 00:14:40;;;;;;;5.20;0.70;;;5.70;99.90;;;;;;5055251;28;20044;-70
2024/02/23 00:17:06;;;;;;;7.25;0.88;;;5.60;99.90;;;;;;5055155;28;20037;-70
2024/02/23 00:19:32;;;;;;;5.28;0.70;;;5.70;99.90;;;;;;5054708;28;20052;-70
2024/02/23 00:21:59;;;;;;;6.15;2.05;;;5.60;99.90;;;;;;5056062;28;20033;-70
2024/02/23 00:24:25;;;;;;;3.45;0.85;;;5.60;99.90;;;;;;5054845;28;20505;-70
2024/02/23 00:26:51;;;;;;;2.95;0.75;;;5.80;99.90;;;;;;5036826;28;20049;-69
2024/02/23 00:29:17;;;;;;;4.55;1.30;;;5.70;99.90;;;;;;5055108;28;20037;-70
2024/02/23 00:31:45;;;;;;;5.75;0.90;;;5.70;99.90;;;;;;5054703;28;20678;-70
2024/02/23 00:34:13;;;;;;;7.65;0.95;;;5.80;99.90;;;;;;5036672;28;20049;-70
2024/02/23 00:36:42;;;;;;;5.03;0.90;;;5.80;99.90;;;;;;5034638;28;20037;-70
2024/02/23 00:39:08;;;;;;;3.38;0.98;;;5.80;99.90;;;;;;5053003;28;20045;-70
2024/02/23 00:41:34;;;;;;;3.33;1.55;;;5.80;99.90;;;;;;5054106;28;20059;-70
2024/02/23 00:44:00;;;;;;;3.85;0.70;;;5.80;99.90;;;;;;5054523;28;20044;-69
2024/02/23 00:46:26;;;;;;;2.95;0.95;;;5.80;99.90;;;;;;5054482;28;20072;-70
2024/02/23 00:48:52;;;;;;;6.63;0.77;;;5.60;99.90;;;;;;5037741;28;20041;-70
2024/02/23 00:51:17;;;;;;;2.28;1.02;;;5.70;99.90;;;;;;5054650;28;20040;-70
2024/02/23 00:53:43;;;;;;;4.80;0.95;;;5.70;99.90;;;;;;5054880;28;20037;-70
2024/02/23 00:56:09;;;;;;;3.25;0.98;;;5.50;99.90;;;;;;5055253;28;20029;-70
2024/02/23 00:58:34;;;;;;;3.13;1.15;;;5.60;99.90;;;;;;5037668;28;20041;-70
2024/02/23 01:01:00;;;;;;;4.40;0.80;;;5.60;99.90;;;;;;5054866;28;20124;-70
2024/02/23 01:03:26;;;;;;;7.00;1.02;;;5.60;99.90;;;;;;5055041;28;20093;-69
2024/02/23 01:05:52;;;;;;;3.20;0.90;;;5.40;99.90;;;;;;5054900;28;20037;-70
2024/02/23 01:08:17;;;;;;;2.10;0.85;;;5.50;99.90;;;;;;5054783;28;20033;-70
2024/02/23 01:10:44;;;;;;;3.33;0.80;;;5.50;99.90;;;;;;5055383;28;20067;-70
2024/02/23 01:13:09;;;;;;;2.95;0.98;;;5.60;99.90;;;;;;5052814;28;20040;-69
2024/02/23 01:15:35;;;;;;;3.92;0.63;;;5.50;99.90;;;;;;5054416;28;20129;-70
2024/02/23 01:18:01;;;;;;;3.40;1.45;;;5.40;99.90;;;;;;5052195;28;20041;-70
2024/02/23 01:20:26;;;;;;;4.80;1.05;;;5.40;99.90;;;;;;5055803;28;20052;-69
2024/02/23 01:22:52;;;;;;;3.40;0.90;;;5.30;99.90;;;;;;5054509;28;20033;-70
2024/02/23 01:25:18;;;;;;;6.82;1.00;;;5.10;99.90;;;;;;5055273;28;20061;-69
2024/02/23 01:27:47;;;;;;;3.92;1.38;;;5.50;99.90;;;;;;5054748;28;20159;-70
2024/02/23 01:30:13;;;;;;;4.28;0.93;;;5.20;99.90;;;;;;5044201;28;20041;-70
2024/02/23 01:32:39;;;;;;;3.25;1.27;;;5.50;99.90;;;;;;5035897;28;20484;-70
2024/02/23 01:35:08;;;;;;;6.95;1.75;;;5.20;99.90;;;;;;5034627;28;20040;-70
2024/02/23 01:37:34;;;;;;;11.20;1.88;;;5.20;99.90;;;;;;5034533;28;20029;-70
2024/02/23 01:40:00;;;;;;;4.20;1.70;;;5.20;99.90;;;;;;5033676;28;20490;-70
2024/02/23 01:42:26;;;;;;;6.95;1.42;;;5.40;99.90;;;;;;5032227;28;20485;-70
2024/02/23 01:44:52;;;;;;;6.32;1.02;;;5.10;99.90;;;;;;5032343;28;20402;-70
2024/02/23 01:47:18;;;;;;;3.95;1.27;;;5.30;99.90;;;;;;5033347;28;20046;-70
2024/02/23 01:49:46;;;;;;;6.03;1.35;;;5.50;99.90;;;;;;5034578;28;20614;-70
2024/02/23 01:52:13;;;;;;;4.57;1.10;;;5.20;99.90;;;;;;5035101;28;20516;-70
2024/02/23 01:54:39;;;;;;;4.13;1.20;;;5.20;99.90;;;;;;5016022;28;20041;-70
2024/02/23 01:57:08;;;;;;;1.98;1.08;;;5.30;99.90;;;;;;5032332;28;20091;-69
2024/02/23 01:59:37;;;;;;;3.65;1.00;;;5.30;99.90;;;;;;5033621;28;20041;-70
2024/02/23 02:02:03;;;;;;;8.38;2.28;;;5.10;99.90;;;;;;5033370;28;20041;-70
2024/02/23 02:04:29;;;;;;;7.07;1.33;;;5.40;99.90;;;;;;5038491;28;20041;-70
2024/02/23 02:06:55;;;;;;;5.60;1.25;;;5.10;99.90;;;;;;5038045;28;20060;-70
2024/02/23 02:09:21;;;;;;;7.63;2.00;;;5.10;99.90;;;;;;5037484;28;20037;-70
2024/02/23 02:11:48;;;;;;;6.50;1.48;;;5.30;99.90;;;;;;5037766;28;20047;-70
2024/02/23 02:14:14;;;;;;;4.40;1.50;;;5.10;99.90;;;;;;5019965;28;20128;-70
2024/02/23 02:16:40;;;;;;;9.70;1.90;;;5.30;99.90;;;;;;5035530;28;20082;-69
2024/02/23 02:19:06;;;;;;;9.40;1.67;;;5.20;99.90;;;;;;5020619;28;20064;-70
2024/02/23 02:21:35;;;;;;;10.32;1.80;;;5.50;99.90;;;;;;5037973;28;20552;-70
2024/02/23 02:24:00;;;;;;;8.57;2.35;;;5.60;99.90;;;;;;5035223;28;20037;-70
2024/02/23 02:26:26;;;;;;;15.43;2.05;;;5.50;99.90;;;;;;5036170;28;20037;-70
2024/02/23 02:28:52;;;;;;;9.43;2.00;;;5.40;99.90;;;;;;5035303;28;20076;-70
2024/02/23 02:31:18;;;;;;;13.68;2.03;;;5.60;99.90;;;;;;5037621;28;20095;-70
2024/02/23 02:33:44;;;;;;;10.98;1.98;;;5.50;99.90;;;;;;5037833;28;20056;-70
2024/02/23 02:36:09;;;;;;;8.55;1.77;;;5.50;99.90;;;;;;5038772;28;20050;-69
2024/02/23 02:38:35;;;;;;;9.15;2.20;;;5.50;99.90;;;;;;5036832;28;20044;-70
2024/02/23 02:41:01;;;;;;;8.75;1.85;;;5.40;99.90;;;;;;5039444;28;20038;-70
2024/02/23 02:43:27;;;;;;;9.13;2.05;;;5.50;99.90;;;;;;5035329;28;20405;-70
2024/02/23 02:45:53;;;;;;;10.32;1.65;;;5.60;99.90;;;;;;5036687;28;20120;-69
2024/02/23 02:48:19;;;;;;;8.15;3.20;;;5.80;99.90;;;;;;5020058;28;20076;-69
2024/02/23 02:50:45;;;;;;;8.50;2.35;;;5.80;99.90;;;;;;5037385;28;20041;-69
2024/02/23 02:53:10;;;;;;;12.55;2.75;;;5.50;99.90;;;;;;5037168;28;20520;-69
2024/02/23 02:55:39;;;;;;;15.43;3.78;;;5.90;99.90;;;;;;5018913;28;20432;-69
2024/02/23 02:58:05;;;;;;;10.65;2.38;;;5.60;99.90;;;;;;5036865;28;20045;-69
2024/02/23 03:00:31;;;;;;;12.75;3.13;;;5.80;99.90;;;;;;5037789;28;20048;-69
2024/02/23 03:02:57;;;;;;;9.27;2.78;;;5.80;99.90;;;;;;5018534;28;20041;-69
2024/02/23 03:05:22;;;;;;;9.90;2.05;;;5.60;99.90;;;;;;5034901;28;20120;-69
2024/02/23 03:07:48;;;;;;;14.20;2.53;;;5.70;99.90;;;;;;5037234;28;20048;-69
2024/02/23 03:10:14;;;;;;;17.35;3.90;;;5.90;99.90;;;;;;5037075;28;20034;-69
2024/02/23 03:12:39;;;;;;;11.80;2.47;;;5.80;99.90;;;;;;5034148;28;20120;-69
2024/02/23 03:15:06;;;;;;;10.50;2.38;;;5.90;99.90;;;;;;5035586;28;20045;-69
2024/02/23 03:17:32;;;;;;;10.13;2.22;;;5.70;99.90;;;;;;5017726;28;20045;-69
2024/02/23 03:19:58;;;;;;;12.30;3.90;;;5.80;99.90;;;;;;5034054;28;20060;-69
2024/02/23 03:22:24;;;;;;;9.10;2.22;;;5.90;99.90;;;;;;5035539;28;20397;-69
2024/02/23 03:24:50;;;;;;;16.45;2.13;;;5.90;99.90;;;;;;5035597;28;20075;-69
2024/02/23 03:27:15;;;;;;;7.53;2.22;;;5.80;99.90;;;;;;5033924;28;20048;-69
2024/02/23 03:29:41;;;;;;;9.57;3.10;;;5.70;99.90;;;;;;5036146;28;20038;-69
2024/02/23 03:32:07;;;;;;;10.70;2.40;;;5.90;99.90;;;;;;5036679;28;20044;-69
2024/02/23 03:34:33;;;;;;;14.80;1.85;;;5.70;99.90;;;;;;5037899;28;20172;-69
2024/02/23 03:37:00;;;;;;;5.03;1.42;;;5.80;99.90;;;;;;5036378;28;20466;-70
2024/02/23 03:39:25;;;;;;;16.55;2.58;;;5.80;99.90;;;;;;5036580;28;20072;-69
2024/02/23 03:41:51;;;;;;;10.93;1.80;;;5.70;99.90;;;;;;5036615;28;20075;-69
2024/02/23 03:44:16;;;;;;;15.07;2.35;;;5.80;99.90;;;;;;5016349;28;20045;-69
2024/02/23 03:46:42;;;;;;;9.10;2.40;;;5.80;99.90;;;;;;5034299;28;20485;-70
2024/02/23 03:49:08;;;;;;;5.18;1.40;;;5.80;99.90;;;;;;5036285;28;20405;-70
2024/02/23 03:51:36;;;;;;;10.13;2.25;;;5.80;99.90;;;;;;5035188;28;20128;-69
2024/02/23 03:54:03;;;;;;;12.23;2.53;;;5.70;99.90;;;;;;5035359;28;20119;-69
2024/02/23 03:56:28;;;;;;;8.63;1.55;;;5.60;99.90;;;;;;5015514;28;20508;-69
2024/02/23 03:58:54;;;;;;;13.30;2.65;;;5.70;99.90;;;;;;5035972;28;20045;-69
2024/02/23 04:01:19;;;;;;;7.80;1.65;;;5.50;99.90;;;;;;5035284;28;20124;-70
2024/02/23 04:03:45;;;;;;;7.85;1.77;;;5.70;99.90;;;;;;5017686;28;20179;-70
2024/02/23 04:06:11;;;;;;;10.38;1.98;;;5.70;99.90;;;;;;5034367;28;20048;-69
2024/02/23 04:08:36;;;;;;;11.05;1.58;;;5.50;99.90;;;;;;5034871;28;20049;-70
2024/02/23 04:11:03;;;;;;;11.00;1.77;;;5.50;99.90;;;;;;5015003;28;20041;-70
2024/02/23 04:13:28;;;;;;;6.13;1.90;;;5.50;99.90;;;;;;5032795;28;20087;-69
2024/02/23 04:15:54;;;;;;;8.50;1.63;;;5.50;99.90;;;;;;5033062;28;20049;-69
2024/02/23 04:18:19;;;;;;;7.38;1.33;;;5.50;99.90;;;;;;5033602;28;20056;-69
2024/02/23 04:20:45;;;;;;;7.22;1.20;;;5.50;99.90;;;;;;5034418;28;20584;-70
2024/02/23 04:23:11;;;;;;;8.13;1.52;;;5.50;99.90;;;;;;5032788;28;20034;-69
2024/02/23 04:25:36;;;;;;;7.88;1.67;;;5.50;99.90;;;;;;5031743;28;20038;-69
2024/02/23 04:28:02;;;;;;;9.35;1.70;;;5.40;99.90;;;;;;5034190;28;20044;-70
2024/02/23 04:30:28;;;;;;;6.95;1.45;;;5.40;99.90;;;;;;5016128;28;20045;-69
2024/02/23 04:32:53;;;;;;;11.52;1.73;;;5.50;99.90;;;;;;5032590;28;20041;-69
2024/02/23 04:35:19;;;;;;;6.53;2.00;;;5.40;99.90;;;;;;5034360;28;20041;-69
2024/02/23 04:37:45;;;;;;;7.82;1.30;;;5.40;99.90;;;;;;5034114;28;20041;-70
2024/02/23 04:40:11;;;;;;;10.65;1.70;;;5.40;99.90;;;;;;5016143;28;20056;-70
2024/02/23 04:42:38;;;;;;;8.65;3.03;;;5.60;99.90;;;;;;5032396;28;20037;-70
2024/02/23 04:45:04;;;;;;;12.00;1.83;;;5.60;99.90;;;;;;5014629;28;20096;-69
2024/02/23 04:47:30;;;;;;;4.93;1.25;;;5.60;99.90;;;;;;5033827;28;20073;-69
2024/02/23 04:49:56;;;;;;;3.85;1.75;;;5.60;99.90;;;;;;5033915;28;20045;-70
2024/02/23 04:52:21;;;;;;;10.00;1.88;;;5.50;99.90;;;;;;5032007;28;20041;-69
2024/02/23 04:54:47;;;;;;;13.68;3.10;;;5.70;99.90;;;;;;5032303;28;20037;-69
2024/02/23 04:57:13;;;;;;;7.20;1.25;;;5.40;99.90;;;;;;5032075;28;20076;-69
2024/02/23 04:59:38;;;;;;;8.70;1.63;;;5.40;99.90;;;;;;5034613;28;20042;-70
2024/02/23 05:02:04;;;;;;;8.75;1.48;;;5.60;99.90;;;;;;5033998;28;20033;-70
2024/02/23 05:04:30;;;;;;;11.95;2.47;;;5.40;99.90;;;;;;5016703;28;20038;-69
2024/02/23 05:06:55;;;;;;;7.07;2.58;;;5.50;99.90;;;;;;5034365;28;20100;-69
2024/02/23 05:09:21;;;;;;;7.78;1.60;;;5.50;99.90;;;;;;5034945;28;20094;-70
2024/02/23 05:11:47;;;;;;;7.65;2.20;;;5.50;99.90;;;;;;5016612;28;20401;-69
2024/02/23 05:14:13;;;;;;;4.55;1.70;;;5.40;99.90;;;;;;5034619;28;20176;-69
2024/02/23 05:16:39;;;;;;;11.13;2.85;;;5.40;99.90;;;;;;5034390;28;20037;-70
2024/02/23 05:19:04;;;;;;;10.45;1.55;;;5.40;99.90;;;;;;5033578;28;20116;-69
2024/02/23 05:21:31;;;;;;;6.13;1.95;;;5.50;99.90;;;;;;5033999;28;20400;-70
2024/02/23 05:23:56;;;;;;;9.00;2.28;;;5.40;99.90;;;;;;5031605;28;20060;-69
2024/02/23 05:26:22;;;;;;;6.25;2.05;;;5.30;99.90;;;;;;5033447;28;20532;-69
2024/02/23 05:28:48;;;;;;;8.07;1.58;;;5.30;99.90;;;;;;5033479;28;20045;-70
2024/02/23 05:31:14;;;;;;;8.38;2.65;;;5.20;99.90;;;;;;5033597;28;20132;-69
2024/02/23 05:33:39;;;;;;;13.15;2.25;;;5.30;99.90;;;;;;5015166;28;20132;-69
2024/02/23 05:36:05;;;;;;;4.63;1.60;;;5.30;99.90;;;;;;5033947;28;20045;-69
2024/02/23 05:38:31;;;;;;;5.38;1.83;;;5.40;99.90;;;;;;5037490;28;20045;-70
2024/02/23 05:40:56;;;;;;;6.47;2.67;;;5.20;99.90;;;;;;5037104;28;20508;-69
2024/02/23 05:43:22;;;;;;;10.10;3.60;;;5.20;99.90;;;;;;5037714;28;20040;-70
2024/02/23 05:45:48;;;;;;;10.07;2.38;;;5.20;99.90;;;;;;5035420;28;20030;-69
2024/02/23 05:48:13;;;;;;;9.05;3.78;;;5.30;99.90;;;;;;5039711;28;20049;-69
2024/02/23 05:50:39;;;;;;;7.13;2.70;;;5.20;99.90;;;;;;5054412;28;20040;-70
2024/02/23 05:53:05;;;;;;;12.82;3.65;;;5.40;99.90;;;;;;5052276;28;20104;-69
2024/02/23 05:55:30;;;;;;;9.57;3.88;;;5.30;99.90;;;;;;5049012;28;20037;-69
2024/02/23 05:57:56;;;;;;;9.68;3.83;;;5.30;99.90;;;;;;5055290;28;20094;-70
2024/02/23 06:00:22;;;;;;;12.55;4.80;;;5.40;99.90;;;;;;5057975;28;20041;-70
2024/02/23 06:02:48;;;;;;;11.95;5.88;;;5.40;99.90;;;;;;5040332;28;20033;-69
2024/02/23 06:05:14;;;;;;;12.63;6.43;;;5.30;99.90;;;;;;5058728;28;20036;-70
2024/02/23 06:07:41;;;;;;;13.98;7.30;;;5.50;99.90;;;;;;5056771;28;20037;-69
2024/02/23 06:10:07;;;;;;;12.07;6.60;;;5.50;99.90;;;;;;5057265;28;20056;-70
2024/02/23 06:12:33;;;;;;;14.20;5.70;;;5.40;99.90;;;;;;5056517;28;20041;-69
2024/02/23 06:14:58;;;;;;;15.73;6.55;;;5.50;99.90;;;;;;5057217;28;20080;-69
2024/02/23 06:17:25;;;;;;;11.10;5.57;;;5.30;99.90;;;;;;5057363;28;20029;-70
2024/02/23 06:19:53;;;;;;;13.82;6.57;;;5.30;99.90;;;;;;5057352;28;20056;-70
2024/02/23 06:22:20;;;;;;;15.70;7.05;;;5.30;99.90;;;;;;5036722;28;20037;-69
2024/02/23 06:24:47;;;;;;;16.75;7.72;;;5.40;99.90;;;;;;5054474;28;20111;-70
2024/02/23 06:27:12;;;;;;;10.82;7.25;;;5.20;99.90;;;;;;5054550;28;20044;-69
2024/02/23 06:29:38;;;;;;;14.52;7.10;;;5.40;99.90;;;;;;5047936;28;20036;-69
2024/02/23 06:32:04;;;;;;;18.75;6.68;;;5.40;99.90;;;;;;5054300;28;20458;-69
2024/02/23 06:34:30;;;;;;;14.02;7.40;;;5.20;99.90;;;;;;5054242;28;20056;-69
2024/02/23 06:36:56;;;;;;;19.38;7.43;;;5.20;99.90;;;;;;5053956;28;20037;-70
2024/02/23 06:39:21;;;;;;;13.35;6.88;;;5.20;99.90;;;;;;5056565;28;20041;-70
2024/02/23 06:41:47;;;;;;;17.75;6.28;;;5.20;99.90;;;;;;5057414;28;20500;-69
2024/02/23 06:44:13;;;;;;;12.45;6.68;;;5.30;99.90;;;;;;5057153;28;20040;-69
2024/02/23 06:46:38;;;;;;;13.15;5.78;;;5.20;99.90;;;;;;5056286;28;20037;-70
2024/02/23 06:49:04;;;;;;;21.63;8.13;;;5.10;99.90;;;;;;5037839;28;20079;-69
2024/02/23 06:51:31;;;;;;;10.30;6.07;;;5.10;99.90;;;;;;5056134;28;20053;-69
2024/02/23 06:53:57;;;;;;;11.85;6.10;;;5.10;99.90;;;;;;5058117;28;20101;-69
2024/02/23 06:56:23;;;;;;;14.02;5.45;;;5.20;99.90;;;;;;5056077;28;20093;-69
2024/02/23 06:58:49;;;;;;;16.58;6.90;;;5.10;99.90;;;;;;5056866;28;20075;-69
2024/02/23 07:01:14;;;;;;;11.85;6.05;;;5.10;99.90;;;;;;5056491;28;20033;-70
2024/02/23 07:03:45;;;;;;;18.85;6.78;;;5.10;99.90;;;;;;5057575;28;20041;-70
2024/02/23 07:06:10;;;;;;;12.15;5.75;;;5.20;99.90;;;;;;5056478;28;20063;-70
2024/02/23 07:08:36;;;;;;;10.38;5.65;;;5.20;99.90;;;;;;5058083;28;20443;-69
2024/02/23 07:11:02;;;;;;;13.63;5.97;;;5.10;99.90;;;;;;5057782;28;20561;-70
2024/02/23 07:13:28;;;;;;;10.73;5.75;;;5.20;99.90;;;;;;5056441;28;20071;-70
2024/02/23 07:15:55;;;;;;;12.95;6.00;;;5.20;99.90;;;;;;5055934;28;20037;-70
2024/02/23 07:18:21;;;;;;;14.40;6.60;;;5.20;99.90;;;;;;5056119;28;20052;-70
2024/02/23 07:20:47;;;;;;;11.43;6.00;;;5.20;99.90;;;;;;5055716;28;20420;-70
2024/02/23 07:23:13;;;;;;;14.32;6.72;;;5.20;99.90;;;;;;5057678;28;20049;-70
2024/02/23 07:25:39;;;;;;;12.07;5.90;;;5.40;99.90;;;;;;5038544;28;20037;-69
2024/02/23 07:28:05;;;;;;;13.25;6.13;;;5.40;99.90;;;;;;5038673;28;20121;-70
2024/02/23 07:30:30;;;;;;;13.43;6.43;;;5.50;99.90;;;;;;5035518;28;20052;-70
2024/02/23 07:32:56;;;;;;;16.05;6.47;;;5.50;99.90;;;;;;5056290;28;20041;-70
2024/02/23 07:35:22;;;;;;;13.05;6.05;;;5.70;99.90;;;;;;5039110;28;20041;-70
2024/02/23 07:37:47;;;;;;;13.98;5.05;;;5.70;99.90;;;;;;5056173;28;20551;-71
2024/02/23 07:40:13;;;;;;;12.57;5.35;;;5.70;99.90;;;;;;5037873;28;20045;-68
2024/02/23 07:42:39;;;;;;;14.90;6.13;;;5.80;99.90;;;;;;5055758;28;20570;-68
2024/02/23 07:45:05;;;;;;;10.95;5.78;;;5.80;99.90;;;;;;5037642;28;20041;-68
2024/02/23 07:47:31;;;;;;;15.00;6.57;;;5.80;99.90;;;;;;5054538;28;20119;-68
2024/02/23 07:49:58;;;;;;;10.63;4.70;;;5.80;99.90;;;;;;5056425;28;20064;-68
2024/02/23 07:52:24;;;;;;;10.73;5.00;;;5.80;99.90;;;;;;5057692;28;20041;-70
2024/02/23 07:54:52;;;;;;;14.07;5.53;;;5.80;99.90;;;;;;5055217;28;20047;-69
2024/02/23 07:57:18;;;;;;;9.40;4.80;;;5.90;99.90;;;;;;5054492;28;20550;-70
2024/02/23 07:59:44;;;;;;;10.23;4.88;;;6.00;99.90;;;;;;5054071;28;20120;-69
2024/02/23 08:02:10;;;;;;;10.82;5.03;;;6.30;99.90;;;;;;5053958;28;20501;-69
2024/02/23 08:04:36;;;;;;;10.85;4.95;;;6.30;99.90;;;;;;5054597;28;20091;-69
2024/02/23 08:07:01;;;;;;;13.20;5.53;;;6.40;99.90;;;;;;5054635;28;20037;-69
2024/02/23 08:09:27;;;;;;;9.68;4.03;;;6.40;99.90;;;;;;5052479;28;20454;-68
2024/02/23 08:11:53;;;;;;;9.25;4.43;;;6.40;99.90;;;;;;5054111;28;20116;-69
2024/02/23 08:14:18;;;;;;;8.13;4.25;;;6.40;99.90;;;;;;5054098;28;20033;-69
2024/02/23 08:16:44;;;;;;;8.88;4.30;;;6.30;99.90;;;;;;5053578;28;20045;-69
2024/02/23 08:19:12;;;;;;;7.47;3.55;;;6.30;99.90;;;;;;5053531;28;20045;-69
2024/02/23 08:21:39;;;;;;;9.15;3.42;;;6.30;99.90;;;;;;5053881;28;20400;-69
2024/02/23 08:24:05;;;;;;;6.85;3.30;;;6.40;99.90;;;;;;5053915;28;20044;-70
2024/02/23 08:26:30;;;;;;;4.63;3.15;;;6.30;99.90;;;;;;5054353;28;20036;-70
2024/02/23 08:28:56;;;;;;;8.38;3.60;;;6.20;99.90;;;;;;5054092;28;20091;-69
2024/02/23 08:31:21;;;;;;;6.70;2.65;;;6.20;99.90;;;;;;5053757;28;20515;-69
2024/02/23 08:33:47;;;;;;;7.00;2.47;;;6.30;99.90;;;;;;5053962;28;20493;-70
2024/02/23 08:36:13;;;;;;;5.03;2.50;;;6.20;99.90;;;;;;5053939;28;20048;-69
2024/02/23 08:38:38;;;;;;;7.38;2.45;;;6.20;99.90;;;;;;5053972;28;20045;-69
2024/02/23 08:41:04;;;;;;;5.57;2.72;;;6.30;99.90;;;;;;5054062;28;20044;-69
2024/02/23 08:43:30;;;;;;;6.68;1.98;;;6.30;99.90;;;;;;5053287;28;20044;-69
2024/02/23 08:45:55;;;;;;;4.28;2.38;;;6.40;99.90;;;;;;5053833;28;20029;-69
2024/02/23 08:48:21;;;;;;;7.82;2.65;;;6.40;99.90;;;;;;5053410;28;20086;-69
2024/02/23 08:50:47;;;;;;;9.80;2.45;;;6.40;99.90;;;;;;5053895;28;20036;-69
2024/02/23 08:53:12;;;;;;;6.57;2.20;;;6.40;99.90;;;;;;5053554;28;20040;-69
2024/02/23 08:55:38;;;;;;;2.50;1.73;;;6.40;99.90;;;;;;5035725;28;20148;-71
2024/02/23 08:58:05;;;;;;;6.80;1.63;;;6.50;99.90;;;;;;5036049;28;20532;-69
2024/02/23 09:00:31;;;;;;;6.85;2.28;;;6.50;99.90;;;;;;5054242;28;20424;-70
2024/02/23 09:02:57;;;;;;;9.05;1.80;;;6.50;99.90;;;;;;5054032;28;20029;-70
2024/02/23 09:05:22;;;;;;;7.28;2.10;;;6.50;99.90;;;;;;5053838;28;20029;-69
2024/02/23 09:07:48;;;;;;;5.75;2.22;;;6.60;99.90;;;;;;5053620;28;20103;-70
2024/02/23 09:10:14;;;;;;;6.72;2.20;;;6.70;99.90;;;;;;5053834;28;20045;-70
2024/02/23 09:12:40;;;;;;;6.10;2.15;;;6.70;99.90;;;;;;5052805;28;20032;-69
2024/02/23 09:15:05;;;;;;;6.10;2.17;;;6.70;99.90;;;;;;5052933;28;20543;-70
2024/02/23 09:17:31;;;;;;;5.25;2.75;;;6.60;99.90;;;;;;5054132;28;20064;-70
2024/02/23 09:19:57;;;;;;;5.78;1.88;;;6.60;99.90;;;;;;5053734;28;20044;-69
2024/02/23 09:22:23;;;;;;;7.07;2.17;;;6.70;99.90;;;;;;5053143;28;20032;-69
2024/02/23 09:24:49;;;;;;;5.47;1.98;;;6.70;99.90;;;;;;5053552;28;20048;-69
2024/02/23 09:27:14;;;;;;;5.55;1.90;;;6.90;99.90;;;;;;5052980;28;20507;-70
2024/02/23 09:29:42;;;;;;;8.20;2.35;;;6.90;99.90;;;;;;5052789;28;20416;-70
2024/02/23 09:32:07;;;;;;;5.70;1.85;;;6.90;99.90;;;;;;5034698;28;20040;-70
2024/02/23 09:34:33;;;;;;;3.92;1.90;;;7.00;99.90;;;;;;5053343;28;20112;-69
2024/02/23 09:36:59;;;;;;;6.35;3.03;;;7.00;99.90;;;;;;5053993;28;20037;-70
2024/02/23 09:39:28;;;;;;;4.18;1.70;;;7.20;99.90;;;;;;5036663;28;20063;-69
2024/02/23 09:41:54;;;;;;;7.28;1.35;;;7.30;99.90;;;;;;5052544;28;20167;-70
2024/02/23 09:44:23;;;;;;;4.40;1.63;;;7.40;99.90;;;;;;5052058;28;20570;-70
2024/02/23 09:46:49;;;;;;;4.63;1.58;;;7.30;99.90;;;;;;5051662;28;20032;-69
2024/02/23 09:49:18;;;;;;;3.83;1.38;;;7.30;99.90;;;;;;5051823;28;20515;-70
2024/02/23 09:51:43;;;;;;;6.32;1.80;;;7.40;99.90;;;;;;5051929;28;20041;-70
2024/02/23 09:54:09;;;;;;;7.50;1.55;;;7.40;99.90;;;;;;5035509;28;20044;-70
2024/02/23 09:56:37;;;;;;;4.93;1.27;;;7.40;99.90;;;;;;5035068;28;20055;-70
2024/02/23 09:59:03;;;;;;;7.38;2.25;;;7.40;99.90;;;;;;5051197;28;20068;-69
2024/02/23 10:01:31;;;;;;;4.78;1.23;;;7.40;99.90;;;;;;5034268;28;20496;-70
2024/02/23 10:04:06;;;;;;;6.15;1.50;;;7.40;99.90;;;;;;5052167;28;20041;-70
2024/02/23 10:06:32;;;;;;;8.23;2.00;;;7.40;99.90;;;;;;5051404;28;20040;-70
2024/02/23 10:08:58;;;;;;;11.60;2.45;;;7.50;99.90;;;;;;5052683;28;20045;-70
2024/02/23 10:11:25;;;;;;;7.75;1.42;;;7.50;99.90;;;;;;5034221;28;20048;-70
2024/02/23 10:13:54;;;;;;;6.22;1.58;;;7.60;99.90;;;;;;5034099;28;20473;-70
2024/02/23 10:16:20;;;;;;;5.03;1.17;;;7.60;99.90;;;;;;5034623;28;20048;-70
2024/02/23 10:18:50;;;;;;;5.00;1.40;;;7.70;99.90;;;;;;5018292;28;20459;-70
2024/02/23 10:21:16;;;;;;;6.95;1.70;;;7.70;99.90;;;;;;5034872;28;20091;-73
2024/02/23 10:23:44;;;;;;;5.82;1.50;;;7.80;99.90;;;;;;5052599;28;20029;-70
2024/02/23 10:26:10;;;;;;;5.65;0.98;;;7.80;99.90;;;;;;5038545;28;20443;-70
2024/02/23 10:28:39;;;;;;;5.13;1.02;;;7.90;99.90;;;;;;5038393;28;20051;-70
2024/02/23 10:31:07;;;;;;;1.38;0.90;;;7.90;99.90;;;;;;5056321;28;20049;-70
2024/02/23 10:33:35;;;;;;;3.00;0.90;;;7.90;99.90;;;;;;5038672;28;20067;-70
2024/02/23 10:36:01;;;;;;;2.58;1.08;;;7.90;99.90;;;;;;5055450;28;20060;-70
2024/02/23 10:38:28;;;;;;;4.20;0.93;;;7.90;99.90;;;;;;5021796;28;20044;-70
2024/02/23 10:40:58;;;;;;;9.48;1.60;;;7.80;99.90;;;;;;5055035;28;20041;-70
2024/02/23 10:43:35;;;;;;;6.75;1.33;;;7.80;99.90;;;;;;5038354;28;20041;-71
2024/02/23 10:46:03;;;;;;;4.00;1.20;;;7.70;99.90;;;;;;5036739;28;20098;-70
2024/02/23 10:48:29;;;;;;;5.22;1.65;;;7.70;99.90;;;;;;5036510;28;20078;-70
2024/02/23 10:50:57;;;;;;;3.92;1.00;;;7.60;99.90;;;;;;5038103;28;20033;-70
2024/02/23 10:53:24;;;;;;;4.43;1.05;;;7.60;99.90;;;;;;5054816;28;20044;-70
2024/02/23 10:55:59;;;;;;;5.45;1.67;;;7.60;99.90;;;;;;5054956;28;20037;-70
2024/02/23 10:58:25;;;;;;;7.80;1.20;;;7.60;99.90;;;;;;5051059;28;20047;-70
2024/02/23 11:00:51;;;;;;;2.90;0.90;;;7.60;99.90;;;;;;5036051;28;20041;-70
2024/02/23 11:03:18;;;;;;;3.72;1.80;;;7.60;99.90;;;;;;5054170;28;20040;-71
2024/02/23 11:05:49;;;;;;;4.40;1.20;;;7.60;99.90;;;;;;5053366;28;20523;-70
2024/02/23 11:08:18;;;;;;;5.82;1.10;;;7.60;99.90;;;;;;5055683;28;20037;-70
2024/02/23 11:10:54;;;;;;;4.43;1.20;;;7.60;99.90;;;;;;5035986;28;20040;-69
2024/02/23 11:13:39;;;;;;;3.30;1.05;;;7.60;99.90;;;;;;5050416;28;20037;-70
2024/02/23 11:16:11;;;;;;;6.60;0.98;;;7.60;99.90;;;;;;5050553;28;20068;-69
2024/02/23 11:18:39;;;;;;;4.60;1.25;;;7.60;99.90;;;;;;5034269;28;20037;-72
2024/02/23 11:21:06;;;;;;;2.80;1.13;;;7.70;99.90;;;;;;5053945;28;20401;-71
2024/02/23 11:23:42;;;;;;;7.85;1.20;;;7.70;99.90;;;;;;5035617;28;20041;-70
2024/02/23 11:26:11;;;;;;;1.50;0.73;;;7.70;99.90;;;;;;5054319;28;20041;-69
2024/02/23 11:28:52;;;;;;;4.45;1.52;;;7.70;99.90;;;;;;5036436;28;20116;-70
2024/02/23 11:31:25;;;;;;;4.78;1.23;;;7.70;99.90;;;;;;5053020;28;20037;-70
2024/02/23 11:33:54;;;;;;;5.45;1.67;;;7.80;99.90;;;;;;5053320;28;20440;-69
2024/02/23 11:36:24;;;;;;;2.63;1.25;;;7.70;99.90;;;;;;5052775;28;20041;-69
2024/02/23 11:38:54;;;;;;;9.30;1.90;;;7.70;99.90;;;;;;5036063;28;20103;-70
2024/02/23 11:41:24;;;;;;;8.50;2.22;;;7.80;99.90;;;;;;5036334;28;20045;-69
2024/02/23 11:43:55;;;;;;;5.57;1.30;;;7.80;99.90;;;;;;5054249;28;20045;-70
2024/02/23 11:46:21;;;;;;;6.22;1.25;;;7.80;99.90;;;;;;5054520;28;20059;-70
2024/02/23 11:48:47;;;;;;;2.88;1.00;;;7.80;99.90;;;;;;5053021;28;20052;-69
2024/02/23 11:51:14;;;;;;;6.07;0.82;;;7.70;99.90;;;;;;5035318;28;20044;-71
2024/02/23 11:53:40;;;;;;;4.90;1.17;;;7.70;99.90;;;;;;5052582;28;20041;-70
2024/02/23 11:56:06;;;;;;;2.58;0.95;;;7.70;99.90;;;;;;5052860;28;20528;-69
2024/02/23 11:58:35;;;;;;;4.28;1.30;;;7.60;99.90;;;;;;5034851;28;20033;-69
2024/02/23 12:01:02;;;;;;;4.00;1.52;;;7.50;99.90;;;;;;5054031;28;20408;-69
2024/02/23 12:03:31;;;;;;;4.20;1.10;;;7.50;99.90;;;;;;5053330;28;20139;-69
2024/02/23 12:05:58;;;;;;;4.38;0.98;;;7.40;99.90;;;;;;5053120;28;20171;-70
2024/02/23 12:08:26;;;;;;;8.10;1.70;;;7.40;99.90;;;;;;5034842;28;20400;-69
2024/02/23 12:10:54;;;;;;;5.30;1.15;;;7.40;99.90;;;;;;5053090;28;20041;-70
2024/02/23 12:13:21;;;;;;;3.85;1.17;;;7.40;99.90;;;;;;5035870;28;20263;-70
2024/02/23 12:15:47;;;;;;;4.35;1.00;;;7.30;99.90;;;;;;5054935;28;20033;-70
2024/02/23 12:18:14;;;;;;;4.38;1.13;;;7.30;99.90;;;;;;5050013;28;20037;-69
2024/02/23 12:20:40;;;;;;;2.70;1.40;;;7.40;99.90;;;;;;5034766;28;20044;-70
2024/02/23 12:23:07;;;;;;;4.18;1.15;;;7.40;99.90;;;;;;5049759;28;20041;-70
2024/02/23 12:25:33;;;;;;;4.40;1.30;;;7.40;99.90;;;;;;5052781;28;20080;-70
2024/02/23 12:28:00;;;;;;;8.00;1.17;;;7.30;99.90;;;;;;5052966;28;20120;-70
2024/02/23 12:30:28;;;;;;;6.32;1.70;;;7.30;99.90;;;;;;5035261;28;20403;-70
2024/02/23 12:33:15;;;;;;;7.95;1.80;;;7.40;99.90;;;;;;5053026;28;20119;-69
2024/02/23 12:35:40;;;;;;;2.33;1.02;;;7.30;99.90;;;;;;5051849;28;20045;-69
2024/02/23 12:38:06;;;;;;;3.88;1.38;;;7.40;99.90;;;;;;5051636;28;20040;-69
2024/02/23 12:40:32;;;;;;;2.60;1.08;;;7.40;99.90;;;;;;5051745;28;20040;-69
2024/02/23 12:42:58;;;;;;;3.20;0.85;;;7.40;99.90;;;;;;5051927;28;20402;-69
2024/02/23 12:45:23;;;;;;;6.60;1.23;;;7.40;99.90;;;;;;5052001;28;20044;-70
2024/02/23 12:47:49;;;;;;;6.47;1.00;;;7.40;99.90;;;;;;5052838;28;20132;-70